Time;durP1;ratioP1;P1;durP2;ratioP2;P2;SDS_P1;SDS_P2;PMS_P1;PMS_P2;Temp;Humidity;BMP_temperature;BMP_pressure;BME280_temperature;BME280_humidity;BME280_pressure;Samples;Min_cycle;Max_cycle;Signal;HPM_P1;HPM_P2
2022/01/28 00:02:36;;;;;;;31.53;20.00;;;;;;;1.75;66.26;100075.44;5030218;28;20762;-55
2022/01/28 00:05:04;;;;;;;24.60;16.97;;;;;;;1.68;66.40;100068.25;5030133;28;20193;-54
2022/01/28 00:07:32;;;;;;;28.23;17.47;;;;;;;1.71;66.50;100068.44;5029975;28;20229;-55
2022/01/28 00:09:59;;;;;;;30.40;16.27;;;;;;;1.77;66.65;100058.69;5030339;28;20197;-54
2022/01/28 00:12:27;;;;;;;20.93;15.97;;;;;;;1.75;66.38;100067.84;5030043;28;20192;-54
2022/01/28 00:15:04;;;;;;;25.73;16.30;;;;;;;1.78;66.49;100065.50;5030113;28;20283;-54
2022/01/28 00:18:04;;;;;;;24.00;16.53;;;;;;;1.81;66.51;100061.41;5032225;28;20209;-54
2022/01/28 00:37:09;;;;;;;24.00;16.43;;;;;;;1.72;66.29;100060.06;5049376;28;20677;-55
2022/01/28 00:39:37;;;;;;;28.03;16.93;;;;;;;1.71;66.62;100045.66;5043230;28;20681;-56
2022/01/28 00:42:05;;;;;;;21.53;16.50;;;;;;;1.65;66.77;100040.22;5048475;28;20283;-55
2022/01/28 00:44:33;;;;;;;25.93;17.10;;;;;;;1.62;66.66;100036.66;5056911;28;20647;-56
2022/01/28 00:47:00;;;;;;;25.70;16.47;;;;;;;1.58;66.73;100022.91;5057784;28;20196;-55
2022/01/28 00:49:28;;;;;;;26.40;17.47;;;;;;;1.66;66.32;100041.97;5051848;28;20275;-56
2022/01/28 00:51:55;;;;;;;25.70;16.77;;;;;;;1.64;66.37;100035.06;5049515;28;20267;-55
2022/01/28 00:54:22;;;;;;;24.80;16.50;;;;;;;1.64;66.14;100030.00;5051780;28;20227;-60
2022/01/28 00:56:51;;;;;;;22.90;16.33;;;;;;;1.54;65.86;100018.44;5049405;28;20230;-60
2022/01/28 00:59:19;;;;;;;27.00;16.67;;;;;;;1.56;65.71;100024.50;5049579;28;20192;-60
2022/01/28 01:01:46;;;;;;;23.97;16.30;;;;;;;1.53;66.16;100015.81;5060255;28;20219;-61
2022/01/28 01:04:13;;;;;;;23.83;15.70;;;;;;;1.57;65.55;100021.16;5069547;28;20196;-60
2022/01/28 01:06:40;;;;;;;21.17;14.50;;;;;;;1.49;65.66;100014.75;5069501;28;20578;-60
2022/01/28 01:09:07;;;;;;;25.93;16.70;;;;;;;1.48;65.55;100007.97;5069939;28;20203;-60
2022/01/28 01:11:33;;;;;;;23.83;16.20;;;;;;;1.50;65.87;100005.50;5069362;28;20194;-60
2022/01/28 01:14:02;;;;;;;24.27;16.07;;;;;;;1.48;65.67;100007.09;5069514;28;20198;-60
2022/01/28 01:16:34;;;;;;;21.30;14.30;;;;;;;1.50;64.99;100005.50;5072702;28;20187;-55
2022/01/28 01:19:16;;;;;;;24.40;14.53;;;;;;;1.51;64.32;99995.47;5072858;28;20183;-56
2022/01/28 01:21:43;;;;;;;22.03;14.03;;;;;;;1.51;64.51;99982.81;5073242;28;20218;-56
2022/01/28 01:24:20;;;;;;;18.83;13.97;;;;;;;1.47;64.09;99969.88;5073062;28;20196;-55
2022/01/28 01:26:47;;;;;;;21.40;13.77;;;;;;;1.44;63.82;99957.91;5073208;28;20345;-55
2022/01/28 01:29:18;;;;;;;21.20;13.83;;;;;;;1.50;63.63;99949.81;5072971;28;20961;-54
2022/01/28 01:31:45;;;;;;;22.20;14.60;;;;;;;1.59;63.59;99946.16;5072913;28;20287;-54
2022/01/28 01:34:15;;;;;;;18.30;14.43;;;;;;;1.56;63.96;99940.94;5072873;28;20187;-55
2022/01/28 01:36:43;;;;;;;18.77;12.87;;;;;;;1.59;64.70;99932.63;5072741;28;20199;-56
2022/01/28 01:39:10;;;;;;;19.73;13.50;;;;;;;1.62;63.82;99933.66;5072571;28;20187;-53
2022/01/28 01:41:43;;;;;;;18.47;13.07;;;;;;;1.60;64.54;99921.69;5072575;28;20311;-54
2022/01/28 01:44:20;;;;;;;16.83;13.13;;;;;;;1.68;64.23;99928.09;5072729;28;20279;-54
2022/01/28 01:47:12;;;;;;;19.60;13.37;;;;;;;1.70;63.41;99922.31;5072582;28;20286;-54
2022/01/28 01:52:21;;;;;;;15.70;11.63;;;;;;;1.70;62.61;99917.25;5072798;28;20190;-54
2022/01/28 01:54:50;;;;;;;18.27;12.33;;;;;;;1.70;62.75;99912.19;5072977;28;20307;-55
2022/01/28 01:57:17;;;;;;;16.80;11.93;;;;;;;1.74;62.14;99895.53;5072344;28;20192;-54
2022/01/28 01:59:44;;;;;;;15.17;11.60;;;;;;;1.76;61.90;99893.94;5072619;28;20187;-54
2022/01/28 02:02:13;;;;;;;17.37;10.77;;;;;;;1.82;61.69;99889.22;5072481;28;20238;-54
2022/01/28 02:04:40;;;;;;;13.73;10.53;;;;;;;1.84;61.55;99881.72;5072445;28;20656;-59
2022/01/28 02:07:07;;;;;;;13.87;10.60;;;;;;;1.85;61.50;99888.53;5072126;28;20234;-59
2022/01/28 02:09:34;;;;;;;13.87;11.33;;;;;;;1.88;61.21;99883.63;5072563;28;20267;-59
2022/01/28 02:12:01;;;;;;;13.43;10.63;;;;;;;1.93;60.96;99877.16;5069896;28;20203;-60
2022/01/28 02:14:28;;;;;;;14.57;10.70;;;;;;;1.95;60.96;99870.53;5053431;28;20286;-59
2022/01/28 02:16:55;;;;;;;14.67;11.20;;;;;;;2.00;60.26;99869.13;5071815;28;20286;-59
2022/01/28 02:19:23;;;;;;;15.10;10.87;;;;;;;1.71;60.85;99819.34;5072125;28;20282;-59
2022/01/28 02:21:52;;;;;;;15.63;11.23;;;;;;;1.99;60.50;99854.69;5071947;28;20720;-59
2022/01/28 02:24:25;;;;;;;12.97;10.53;;;;;;;2.04;60.39;99858.34;5072152;28;20192;-59
2022/01/28 02:26:52;;;;;;;15.87;11.23;;;;;;;2.05;60.29;99853.41;5071729;28;20249;-59
2022/01/28 02:29:27;;;;;;;16.40;12.20;;;;;;;2.10;60.42;99857.03;5071782;28;20187;-59
2022/01/28 02:31:55;;;;;;;17.13;12.47;;;;;;;2.04;59.99;99846.56;5071957;28;20191;-59
2022/01/28 02:34:22;;;;;;;18.00;13.37;;;;;;;2.07;60.34;99850.94;5072008;28;20230;-59
2022/01/28 02:36:49;;;;;;;16.23;11.67;;;;;;;2.02;59.94;99852.34;5071505;28;20187;-59
2022/01/28 02:39:17;;;;;;;17.40;12.40;;;;;;;1.96;60.55;99850.34;5071841;28;20195;-59
2022/01/28 02:41:48;;;;;;;20.07;14.03;;;;;;;2.05;60.61;99839.84;5071471;28;20212;-59
2022/01/28 02:44:20;;;;;;;19.33;12.70;;;;;;;1.99;60.21;99831.91;5071394;28;20191;-59
2022/01/28 02:46:57;;;;;;;19.60;13.47;;;;;;;1.91;61.06;99818.81;5071836;28;20180;-60
2022/01/28 02:49:27;;;;;;;19.67;13.87;;;;;;;1.83;61.65;99812.47;5071733;28;20191;-59
2022/01/28 02:51:54;;;;;;;20.43;14.20;;;;;;;1.85;61.87;99812.53;5071232;28;20681;-60
2022/01/28 02:54:23;;;;;;;18.97;13.83;;;;;;;1.78;61.85;99816.41;5071413;28;20644;-60
2022/01/28 02:56:52;;;;;;;24.57;14.90;;;;;;;1.74;61.81;99817.88;5071174;28;20287;-60
2022/01/28 02:59:19;;;;;;;20.50;14.77;;;;;;;1.69;62.12;99823.47;5071238;28;20180;-61
2022/01/28 03:01:46;;;;;;;22.63;14.30;;;;;;;1.68;62.30;99829.31;5071066;28;20318;-61
2022/01/28 03:04:32;;;;;;;26.33;15.67;;;;;;;1.61;62.32;99834.84;5071223;28;20284;-60
2022/01/28 03:06:59;;;;;;;25.77;15.83;;;;;;;1.52;62.06;99835.19;5071058;28;20255;-60
2022/01/28 03:09:46;;;;;;;23.53;16.73;;;;;;;1.50;62.97;99830.81;5071031;28;20637;-61
2022/01/28 03:12:16;;;;;;;24.50;18.50;;;;;;;1.44;63.39;99828.81;5070996;28;20278;-61
2022/01/28 03:14:59;;;;;;;23.97;18.07;;;;;;;1.48;63.39;99832.41;5070854;28;20208;-61
2022/01/28 03:17:50;;;;;;;23.23;15.43;;;;;;;1.49;62.91;99829.94;5070894;28;20303;-59
2022/01/28 03:20:34;;;;;;;22.53;15.10;;;;;;;1.39;63.69;99826.81;5071086;28;20273;-59
2022/01/28 03:23:01;;;;;;;25.63;15.87;;;;;;;1.39;63.31;99844.53;5070915;28;20215;-61
2022/01/28 03:25:29;;;;;;;22.83;15.70;;;;;;;1.38;63.42;99840.22;5070801;28;20713;-60
2022/01/28 03:27:59;;;;;;;19.93;15.50;;;;;;;1.31;63.90;99841.56;5070620;28;20187;-59
2022/01/28 03:30:26;;;;;;;19.57;14.67;;;;;;;1.30;63.30;99837.28;5070593;28;20282;-59
2022/01/28 03:32:53;;;;;;;17.93;14.17;;;;;;;1.33;63.85;99828.97;5070475;28;20192;-59
2022/01/28 03:35:20;;;;;;;21.97;15.73;;;;;;;1.32;62.80;99833.16;5070544;28;20283;-54
2022/01/28 03:37:47;;;;;;;21.67;14.33;;;;;;;1.36;63.61;99844.34;5070435;28;20214;-54
2022/01/28 03:40:19;;;;;;;24.10;15.70;;;;;;;1.32;63.29;99830.63;5070576;28;20677;-54
2022/01/28 03:42:48;;;;;;;20.07;14.27;;;;;;;1.30;62.72;99833.88;5070434;28;20227;-54
2022/01/28 03:45:15;;;;;;;22.13;14.87;;;;;;;1.23;62.80;99831.78;5070360;28;20191;-54
2022/01/28 03:47:42;;;;;;;21.03;14.30;;;;;;;1.21;63.41;99824.06;5070346;28;20187;-54
2022/01/28 03:50:09;;;;;;;22.80;14.80;;;;;;;1.17;63.10;99822.16;5070571;28;20195;-55
2022/01/28 03:52:36;;;;;;;22.77;14.37;;;;;;;1.19;63.67;99820.59;5070363;28;20637;-55
2022/01/28 03:55:03;;;;;;;22.67;15.13;;;;;;;1.17;63.16;99818.00;5070290;28;20192;-55
2022/01/28 03:57:30;;;;;;;25.20;17.17;;;;;;;1.11;63.83;99814.22;5070198;28;20191;-55
2022/01/28 03:59:58;;;;;;;23.57;16.37;;;;;;;1.11;63.29;99806.63;5070527;28;20728;-55
2022/01/28 04:02:32;;;;;;;23.70;16.20;;;;;;;1.00;63.74;99817.78;5070204;28;20772;-55
2022/01/28 04:13:11;;;;;;;24.77;15.60;;;;;;;1.00;64.57;99807.66;5070327;28;20217;-59
2022/01/28 04:15:51;;;;;;;27.10;16.53;;;;;;;1.02;63.88;99811.13;5070107;28;20282;-59
2022/01/28 04:18:18;;;;;;;23.83;16.35;;;;;;;0.96;64.06;99810.81;5070326;28;20956;-59
2022/01/28 04:20:45;;;;;;;22.33;15.77;;;;;;;0.92;64.72;99812.28;5070233;28;20202;-60
2022/01/28 04:23:12;;;;;;;22.93;16.03;;;;;;;0.92;64.66;99819.88;5070280;28;20215;-60
2022/01/28 04:25:39;;;;;;;25.30;14.70;;;;;;;0.92;65.07;99812.28;5070272;28;20199;-60
2022/01/28 04:28:05;;;;;;;24.73;16.07;;;;;;;0.94;64.45;99812.34;5068581;28;21056;-60
2022/01/28 04:30:33;;;;;;;21.73;16.30;;;;;;;0.96;64.28;99805.75;5070362;28;20196;-60
2022/01/28 04:33:01;;;;;;;22.27;15.93;;;;;;;0.96;64.75;99790.56;5070282;28;20195;-60
2022/01/28 04:35:28;;;;;;;26.45;19.83;;;;;;;1.00;64.18;99782.38;5069204;28;20475;-60
2022/01/28 04:38:06;;;;;;;23.23;18.83;;;;;;;1.07;64.35;99787.84;5069915;28;20239;-60
2022/01/28 04:40:38;;;;;;;26.57;18.33;;;;;;;1.06;64.00;99793.72;5067225;28;20198;-61
2022/01/28 04:43:13;;;;;;;26.60;18.80;;;;;;;1.06;63.76;99777.66;5059886;28;20220;-60
2022/01/28 04:45:47;;;;;;;32.63;21.37;;;;;;;1.03;64.15;99783.41;5059527;28;20203;-60
2022/01/28 04:48:24;;;;;;;32.90;20.27;;;;;;;1.00;64.39;99790.81;5069782;28;20198;-60
2022/01/28 04:51:07;;;;;;;29.07;20.13;;;;;;;0.97;64.72;99785.59;5072486;28;20206;-60
2022/01/28 04:53:50;;;;;;;29.97;19.87;;;;;;;0.94;65.01;99776.94;5073478;28;20223;-60
2022/01/28 04:56:40;;;;;;;26.30;20.67;;;;;;;0.92;65.36;99786.09;5073878;28;20191;-59
2022/01/28 04:59:23;;;;;;;50.37;35.23;;;;;;;0.72;66.17;99777.34;5073538;28;20203;-60
2022/01/28 05:05:06;;;;;;;47.47;29.57;;;;;;;0.53;67.34;99775.38;5031435;28;20695;-60
2022/01/28 05:07:45;;;;;;;37.87;26.00;;;;;;;0.41;67.87;99767.06;5068558;28;20219;-60
2022/01/28 05:26:55;;;;;;;62.80;38.23;;;;;;;-0.15;71.80;99780.41;5072985;28;20187;-59
2022/01/28 05:29:22;;;;;;;49.43;32.23;;;;;;;-0.30;71.92;99784.53;5072590;28;20202;-61
2022/01/28 05:31:49;;;;;;;51.67;34.03;;;;;;;-0.33;71.78;99781.81;5072974;28;20582;-59
2022/01/28 05:34:17;;;;;;;52.03;33.90;;;;;;;-0.30;72.28;99784.53;5072958;28;20282;-59
2022/01/28 05:36:46;;;;;;;56.60;34.93;;;;;;;-0.25;72.31;99783.16;5072930;28;20554;-60
2022/01/28 05:39:12;;;;;;;59.67;37.13;;;;;;;-0.26;72.46;99782.28;5072719;28;20555;-59
2022/01/28 05:41:39;;;;;;;56.80;35.60;;;;;;;-0.16;72.24;99784.59;5072453;28;20199;-60
2022/01/28 05:44:07;;;;;;;60.17;36.20;;;;;;;-0.18;72.61;99775.16;5072794;28;20581;-60
2022/01/28 05:46:34;;;;;;;57.00;37.23;;;;;;;-0.20;72.93;99777.63;5072609;28;20981;-59
2022/01/28 05:49:01;;;;;;;106.87;60.27;;;;;;;-0.27;72.36;99784.69;5072152;28;20187;-57
2022/01/28 05:51:28;;;;;;;103.17;62.23;;;;;;;-0.25;73.18;99776.44;5071955;28;20191;-55
2022/01/28 05:53:58;;;;;;;98.27;57.20;;;;;;;-0.21;72.71;99774.97;5072495;28;20195;-55
2022/01/28 05:56:25;;;;;;;94.43;55.17;;;;;;;-0.22;73.33;99783.34;5072207;28;20191;-54
2022/01/28 05:58:52;;;;;;;97.23;55.90;;;;;;;-0.21;72.92;99785.06;5072573;28;20217;-56
2022/01/28 06:01:19;;;;;;;104.40;55.37;;;;;;;-0.28;73.27;99788.88;5072029;28;20198;-56
2022/01/28 06:03:47;;;;;;;93.90;51.83;;;;;;;-0.24;72.50;99790.81;5071988;28;20711;-55
2022/01/28 06:06:19;;;;;;;92.57;56.20;;;;;;;-0.22;73.33;99780.81;5072276;28;20256;-55
2022/01/28 06:08:46;;;;;;;90.83;53.37;;;;;;;-0.16;73.17;99789.63;5071802;28;20231;-55
2022/01/28 06:11:14;;;;;;;93.97;54.83;;;;;;;-0.08;72.89;99795.16;5072107;28;20196;-56
2022/01/28 06:13:42;;;;;;;83.70;51.07;;;;;;;-0.06;73.22;99811.28;5071900;28;20188;-56
2022/01/28 06:16:09;;;;;;;70.77;47.77;;;;;;;0.02;72.94;99805.06;5071942;28;20246;-55
2022/01/28 06:18:36;;;;;;;86.70;50.47;;;;;;;0.07;71.87;99807.88;5071930;28;20261;-55
2022/01/28 06:21:03;;;;;;;71.80;45.53;;;;;;;0.13;71.67;99798.16;5071362;28;20192;-55
2022/01/28 06:23:30;;;;;;;71.90;45.27;;;;;;;0.15;71.88;99801.63;5071324;28;20620;-55
2022/01/28 06:25:57;;;;;;;61.40;38.47;;;;;;;0.19;71.88;99804.47;5071436;28;20191;-54
2022/01/28 06:28:26;;;;;;;65.83;37.33;;;;;;;0.23;71.31;99805.50;5071593;28;20278;-55
2022/01/28 06:30:53;;;;;;;58.47;37.20;;;;;;;0.24;70.63;99790.47;5071563;28;20187;-56
2022/01/28 06:33:20;;;;;;;59.80;37.33;;;;;;;0.36;70.98;99801.28;5071376;28;20287;-55
2022/01/28 06:35:47;;;;;;;56.63;36.83;;;;;;;0.41;70.36;99799.06;5071328;28;20295;-55
2022/01/28 06:38:14;;;;;;;55.63;35.63;;;;;;;0.49;69.73;99792.81;5071548;28;20205;-55
2022/01/28 06:40:41;;;;;;;62.00;36.03;;;;;;;0.59;69.84;99807.75;5070961;28;20236;-55
2022/01/28 06:43:09;;;;;;;53.13;34.30;;;;;;;0.67;69.26;99805.66;5070804;28;20223;-55
2022/01/28 06:45:41;;;;;;;48.07;32.07;;;;;;;0.72;68.36;99810.22;5071031;28;20196;-55
2022/01/28 06:48:10;;;;;;;53.93;32.77;;;;;;;0.78;68.27;99814.75;5053866;28;20647;-55
2022/01/28 06:50:37;;;;;;;58.20;33.83;;;;;;;0.85;68.16;99805.09;5050468;28;20215;-55
2022/01/28 06:53:04;;;;;;;57.80;36.80;;;;;;;0.94;68.32;99808.16;5049350;28;20197;-55
2022/01/28 06:55:31;;;;;;;54.57;37.53;;;;;;;1.01;68.25;99811.94;5031254;28;20575;-55
2022/01/28 06:57:58;;;;;;;57.40;36.00;;;;;;;1.09;66.97;99808.22;5030859;28;20283;-55
2022/01/28 07:00:25;;;;;;;51.87;36.47;;;;;;;1.21;67.54;99808.91;5031249;28;20193;-55
2022/01/28 07:02:53;;;;;;;55.13;34.47;;;;;;;1.35;66.71;99799.56;5030933;28;20258;-55
2022/01/28 07:05:20;;;;;;;48.03;32.70;;;;;;;1.44;66.64;99798.44;5031295;28;20204;-55
2022/01/28 07:07:47;;;;;;;49.07;31.07;;;;;;;1.48;65.46;99800.38;5063378;28;20227;-55
2022/01/28 07:10:14;;;;;;;42.93;30.70;;;;;;;1.60;64.80;99792.56;5065650;28;20201;-55
2022/01/28 07:12:41;;;;;;;39.27;27.60;;;;;;;1.72;63.96;99794.13;5066571;28;20295;-55
2022/01/28 07:15:09;;;;;;;39.87;26.87;;;;;;;1.84;63.41;99778.72;5062781;28;20334;-55
2022/01/28 07:17:36;;;;;;;41.60;26.60;;;;;;;1.92;62.71;99784.22;5068550;28;20209;-55
2022/01/28 07:20:06;;;;;;;30.37;19.87;;;;;;;2.02;60.88;99792.41;5069043;28;20641;-54
2022/01/28 07:22:33;;;;;;;29.33;18.30;;;;;;;2.12;58.86;99776.91;5068662;28;20211;-54
2022/01/28 07:25:00;;;;;;;31.03;19.30;;;;;;;2.30;58.34;99794.75;5056345;28;20294;-55
2022/01/28 07:27:27;;;;;;;31.13;20.53;;;;;;;2.04;57.89;99713.94;5070078;28;20187;-55
2022/01/28 07:29:54;;;;;;;31.33;21.27;;;;;;;2.60;57.59;99785.34;5070081;28;20202;-55
2022/01/28 07:32:22;;;;;;;29.13;21.87;;;;;;;2.80;56.49;99780.50;5069078;28;20188;-54
2022/01/28 07:34:49;;;;;;;31.27;20.77;;;;;;;2.99;56.11;99787.41;5070447;28;20202;-55
2022/01/28 07:37:17;;;;;;;36.10;27.17;;;;;;;3.12;56.02;99786.34;5069014;28;20975;-55
2022/01/28 07:39:45;;;;;;;28.53;20.53;;;;;;;3.38;54.84;99788.47;5069493;28;20205;-55
2022/01/28 07:42:12;;;;;;;24.63;18.10;;;;;;;3.52;53.92;99788.38;5070178;28;20203;-55
2022/01/28 07:44:39;;;;;;;26.40;18.93;;;;;;;3.65;52.54;99784.75;5070022;28;20229;-55
2022/01/28 07:47:06;;;;;;;25.30;17.37;;;;;;;3.65;52.99;99774.59;5070280;28;20202;-55
2022/01/28 07:49:33;;;;;;;25.47;18.53;;;;;;;3.79;52.36;99767.63;5069974;28;20191;-54
2022/01/28 07:52:00;;;;;;;24.33;16.73;;;;;;;3.90;51.75;99782.56;5069727;28;20193;-54
2022/01/28 07:54:28;;;;;;;27.50;17.97;;;;;;;3.94;51.90;99766.66;5069879;28;20270;-55
2022/01/28 07:56:55;;;;;;;24.97;17.17;;;;;;;3.99;52.04;99756.69;5069957;28;20705;-60
2022/01/28 07:59:22;;;;;;;21.53;14.90;;;;;;;4.18;50.73;99772.88;5070109;28;20310;-60
2022/01/28 08:01:49;;;;;;;23.53;16.37;;;;;;;4.25;50.59;99773.16;5069935;28;20211;-61
2022/01/28 08:04:16;;;;;;;24.17;17.13;;;;;;;4.17;50.44;99762.66;5069627;28;20716;-60
2022/01/28 08:06:43;;;;;;;24.73;17.93;;;;;;;4.22;51.13;99784.06;5068589;28;20286;-61
2022/01/28 08:09:10;;;;;;;31.47;18.87;;;;;;;4.18;51.79;99774.53;5048076;28;20649;-61
2022/01/28 08:11:39;;;;;;;25.27;18.80;;;;;;;4.25;52.19;99774.03;5049513;28;20199;-61
2022/01/28 08:14:06;;;;;;;36.27;19.87;;;;;;;4.35;52.51;99768.56;5050027;28;20192;-61
2022/01/28 08:16:34;;;;;;;27.07;20.57;;;;;;;4.28;52.24;99758.91;5047617;28;20203;-55
2022/01/28 08:19:01;;;;;;;38.47;21.47;;;;;;;4.37;53.01;99759.31;5046415;28;20307;-54
2022/01/28 08:21:28;;;;;;;32.47;22.13;;;;;;;4.43;52.56;99781.59;5048927;28;20322;-55
2022/01/28 08:23:55;;;;;;;32.73;20.77;;;;;;;4.33;53.24;99769.28;5047461;28;20258;-56
2022/01/28 08:26:22;;;;;;;31.77;21.50;;;;;;;4.40;53.30;99771.28;5053307;28;20200;-55
2022/01/28 08:28:50;;;;;;;33.17;21.37;;;;;;;4.51;53.37;99758.25;5053293;28;20202;-55
2022/01/28 08:31:17;;;;;;;43.73;22.00;;;;;;;4.62;53.22;99761.25;5053300;28;20196;-55
2022/01/28 08:33:44;;;;;;;32.57;20.40;;;;;;;4.69;53.16;99760.75;5053329;28;20368;-55
2022/01/28 08:36:11;;;;;;;27.43;19.37;;;;;;;4.63;52.37;99758.81;5053145;28;20200;-55
2022/01/28 08:38:44;;;;;;;29.80;18.80;;;;;;;4.59;52.05;99763.66;5072260;28;20295;-56
2022/01/28 08:41:12;;;;;;;30.87;19.77;;;;;;;4.63;52.75;99760.47;5056767;28;20227;-55
2022/01/28 08:43:39;;;;;;;32.60;22.23;;;;;;;4.67;52.59;99762.31;5067375;28;20227;-55
2022/01/28 08:46:08;;;;;;;31.50;21.87;;;;;;;4.72;52.37;99771.91;5065759;28;20295;-56
2022/01/28 08:48:35;;;;;;;34.43;22.47;;;;;;;4.78;52.44;99759.44;5060775;28;20196;-56
2022/01/28 08:51:02;;;;;;;28.73;21.03;;;;;;;4.81;52.41;99760.41;5044572;28;20677;-56
2022/01/28 08:53:29;;;;;;;42.23;22.67;;;;;;;4.86;52.32;99764.00;5053241;28;20322;-56
2022/01/28 08:55:56;;;;;;;33.83;22.43;;;;;;;4.97;53.10;99765.34;5053278;28;20196;-55
2022/01/28 08:58:23;;;;;;;38.00;21.03;;;;;;;4.82;52.07;99737.56;5053263;28;20192;-56
2022/01/28 09:00:50;;;;;;;32.37;21.87;;;;;;;5.07;51.52;99755.59;5053316;28;20190;-56
2022/01/28 09:03:21;;;;;;;27.07;17.10;;;;;;;5.31;51.25;99769.34;5050925;28;20245;-56
2022/01/28 09:05:48;;;;;;;28.27;17.27;;;;;;;5.48;51.34;99753.88;5052763;28;20278;-56
2022/01/28 09:08:15;;;;;;;23.87;15.80;;;;;;;5.62;50.70;99742.56;5068270;28;20236;-56
2022/01/28 09:10:46;;;;;;;30.30;16.53;;;;;;;5.78;50.56;99733.03;5072662;28;20635;-55
2022/01/28 09:13:24;;;;;;;24.07;16.23;;;;;;;5.91;50.27;99726.72;5072923;28;20180;-55
2022/01/28 09:15:53;;;;;;;25.23;16.40;;;;;;;6.01;49.04;99721.19;5072431;28;20210;-55
2022/01/28 09:18:21;;;;;;;26.50;15.47;;;;;;;6.08;49.09;99714.63;5070272;28;20191;-57
2022/01/28 09:20:49;;;;;;;20.73;15.30;;;;;;;6.27;48.33;99722.13;5072361;28;20198;-55
2022/01/28 09:23:16;;;;;;;22.70;14.47;;;;;;;6.42;48.27;99713.38;5072593;28;20693;-56
2022/01/28 09:25:44;;;;;;;20.33;14.47;;;;;;;6.53;48.44;99716.31;5072944;28;20187;-57
2022/01/28 09:28:11;;;;;;;26.40;15.07;;;;;;;6.59;47.50;99701.22;5072413;28;20281;-57
2022/01/28 09:30:38;;;;;;;25.83;15.73;;;;;;;6.69;47.66;99703.25;5072546;28;20269;-56
2022/01/28 09:33:06;;;;;;;27.23;16.20;;;;;;;6.77;48.43;99701.84;5070077;28;20209;-55
2022/01/28 09:35:34;;;;;;;30.83;17.13;;;;;;;6.79;48.38;99686.56;5071649;28;20210;-56
2022/01/28 09:38:02;;;;;;;33.87;18.33;;;;;;;6.87;48.69;99677.47;5072211;28;20252;-59
2022/01/28 09:40:29;;;;;;;29.98;19.48;;;;;;;6.89;47.98;99671.63;5072414;28;20511;-61
2022/01/28 09:42:56;;;;;;;27.83;18.13;;;;;;;7.08;47.92;99685.88;5072222;28;20194;-60
2022/01/28 09:45:25;;;;;;;26.77;13.90;;;;;;;7.30;45.64;99672.97;5071807;28;20234;-60
2022/01/28 09:47:55;;;;;;;22.53;11.23;;;;;;;7.55;44.30;99666.94;5072084;28;20199;-60
2022/01/28 09:50:22;;;;;;;13.27;9.73;;;;;;;7.81;43.15;99663.47;5071869;28;20194;-60
2022/01/28 09:52:51;;;;;;;12.00;6.80;;;;;;;8.10;40.20;99647.25;5059740;28;20207;-60
2022/01/28 09:55:19;;;;;;;13.93;5.57;;;;;;;8.32;39.17;99640.22;5062242;28;20641;-60
2022/01/28 09:57:47;;;;;;;11.77;5.93;;;;;;;8.51;38.75;99637.34;5044766;28;20199;-60
2022/01/28 10:00:15;;;;;;;8.40;3.97;;;;;;;8.71;37.04;99625.91;5038868;28;20214;-60
2022/01/28 10:02:50;;;;;;;7.50;4.00;;;;;;;8.88;36.00;99617.81;5052160;28;20876;-59
2022/01/28 10:05:19;;;;;;;9.87;3.60;;;;;;;9.08;35.13;99617.44;5063082;28;20786;-59
2022/01/28 10:08:05;;;;;;;7.07;3.90;;;;;;;9.25;35.00;99611.03;5071380;28;20254;-60
2022/01/28 10:10:59;;;;;;;6.87;3.90;;;;;;;9.38;34.35;99618.16;5071791;28;20180;-60
2022/01/28 10:13:32;;;;;;;4.13;3.10;;;;;;;9.57;33.85;99610.03;5053281;28;20189;-60
2022/01/28 10:16:06;;;;;;;3.33;2.93;;;;;;;9.91;32.50;99601.38;5062409;28;21083;-59
2022/01/28 10:18:38;;;;;;;6.83;4.47;;;;;;;10.06;32.21;99597.38;5051584;28;20279;-60
2022/01/28 10:21:19;;;;;;;4.47;3.70;;;;;;;9.95;32.24;99542.41;5051883;28;20214;-59
2022/01/28 10:24:01;;;;;;;10.70;6.40;;;;;;;10.61;31.98;99601.88;5051383;28;20720;-59
2022/01/28 10:26:33;;;;;;;5.73;3.10;;;;;;;10.90;30.89;99599.84;5051216;28;20200;-60
2022/01/28 10:29:01;;;;;;;7.20;3.10;;;;;;;10.93;31.01;99569.00;5051275;28;20219;-60
2022/01/28 10:31:44;;;;;;;6.40;3.73;;;;;;;11.35;30.73;99597.09;5051475;28;20192;-60
2022/01/28 10:34:24;;;;;;;6.73;3.00;;;;;;;11.62;30.10;99596.63;5051793;28;20945;-59
2022/01/28 10:36:52;;;;;;;5.00;3.00;;;;;;;11.84;29.87;99588.34;5030919;28;20197;-60
2022/01/28 10:39:24;;;;;;;5.55;3.10;;;;;;;12.00;29.60;99580.00;5030240;28;20444;-59
2022/01/28 10:41:57;;;;;;;7.93;4.00;;;;;;;12.20;29.27;99586.22;5031141;28;20647;-60
2022/01/28 10:44:26;;;;;;;6.40;3.87;;;;;;;12.40;28.78;99581.28;5031112;28;20240;-60
2022/01/28 10:46:56;;;;;;;4.30;3.17;;;;;;;12.49;27.97;99572.78;5030487;28;20204;-59
2022/01/28 10:49:29;;;;;;;9.00;3.73;;;;;;;12.51;28.30;99571.94;5029117;28;20196;-59
2022/01/28 10:52:04;;;;;;;5.87;3.67;;;;;;;12.56;28.30;99569.41;5029460;28;20200;-59
2022/01/28 10:54:33;;;;;;;6.53;3.40;;;;;;;12.34;28.37;99565.75;5028405;28;20437;-60
2022/01/28 10:57:02;;;;;;;8.97;3.47;;;;;;;12.47;28.22;99562.44;5027089;28;20583;-60
2022/01/28 10:59:30;;;;;;;7.00;3.60;;;;;;;12.44;28.45;99583.06;5026403;28;20272;-60
2022/01/28 11:01:58;;;;;;;7.80;4.63;;;;;;;12.43;28.33;99584.75;5027824;28;20726;-60
2022/01/28 11:04:25;;;;;;;10.90;5.33;;;;;;;12.50;28.64;99579.69;5028148;28;20216;-60
2022/01/28 11:06:56;;;;;;;5.80;4.60;;;;;;;12.48;28.60;99589.06;5028538;28;20193;-60
2022/01/28 11:09:23;;;;;;;6.27;3.70;;;;;;;12.49;29.20;99581.38;5028883;28;20193;-60
2022/01/28 11:11:53;;;;;;;11.50;5.17;;;;;;;12.55;28.82;99580.59;5029677;28;20193;-60
2022/01/28 11:14:21;;;;;;;5.53;4.07;;;;;;;12.62;29.29;99582.34;5030291;28;20227;-60
2022/01/28 11:16:48;;;;;;;4.13;3.73;;;;;;;12.49;29.25;99583.09;5030506;28;20579;-60
2022/01/28 11:19:18;;;;;;;9.93;4.70;;;;;;;12.44;29.67;99589.03;5030370;28;20231;-59
2022/01/28 11:22:23;;;;;;;6.43;4.37;;;;;;;12.42;30.05;99584.72;5030195;28;20197;-59
2022/01/28 11:25:16;;;;;;;8.30;4.83;;;;;;;12.51;30.01;99583.97;5023609;28;20212;-60
2022/01/28 11:27:48;;;;;;;11.37;5.33;;;;;;;12.58;29.71;99586.59;5030690;28;20596;-60
2022/01/28 11:30:20;;;;;;;6.53;5.30;;;;;;;12.69;29.92;99579.00;5029972;28;20196;-59
2022/01/28 11:33:01;;;;;;;8.33;5.27;;;;;;;12.77;30.26;99583.34;5030277;28;20251;-60
2022/01/28 11:35:35;;;;;;;7.20;5.07;;;;;;;12.80;30.12;99583.38;5029954;28;20687;-60
2022/01/28 11:38:31;;;;;;;7.77;4.80;;;;;;;12.90;29.96;99586.91;5030056;28;20199;-59
2022/01/28 11:41:00;;;;;;;7.43;5.17;;;;;;;12.87;29.96;99580.00;5028466;28;20258;-59
2022/01/28 11:43:30;;;;;;;9.57;5.20;;;;;;;12.87;29.50;99568.81;5029962;28;20279;-59
2022/01/28 11:46:07;;;;;;;9.05;5.13;;;;;;;12.97;29.80;99580.94;5029445;28;20465;-60
2022/01/28 11:49:09;;;;;;;5.97;4.97;;;;;;;12.94;29.48;99573.16;5030124;28;20279;-59
2022/01/28 11:51:38;;;;;;;4.87;3.93;;;;;;;12.87;29.84;99574.84;5021366;28;20189;-59
2022/01/28 11:54:07;;;;;;;8.33;5.53;;;;;;;12.95;29.74;99580.06;5029672;28;20563;-60
2022/01/28 11:56:38;;;;;;;6.17;4.87;;;;;;;13.00;30.17;99576.69;5029997;28;20192;-60
2022/01/28 11:59:08;;;;;;;6.23;4.27;;;;;;;13.02;29.70;99587.00;5029548;28;20659;-61
2022/01/28 12:02:10;;;;;;;7.27;4.80;;;;;;;12.91;29.75;99583.50;5029697;28;20255;-59
2022/01/28 12:04:38;;;;;;;8.07;4.30;;;;;;;12.99;29.82;99579.25;5029693;28;20220;-59
2022/01/28 12:07:09;;;;;;;5.80;3.77;;;;;;;12.96;29.94;99585.22;5029477;28;20244;-59
2022/01/28 12:09:39;;;;;;;6.10;3.50;;;;;;;12.94;30.71;99584.34;5029687;28;20284;-59
2022/01/28 12:12:11;;;;;;;11.17;3.43;;;;;;;12.99;30.50;99580.09;5029503;28;20283;-60
2022/01/28 12:15:05;;;;;;;6.73;3.40;;;;;;;13.05;31.09;99581.03;5029765;28;20631;-60
2022/01/28 12:17:47;;;;;;;12.93;5.50;;;;;;;13.02;30.82;99574.97;5029566;28;20202;-60
2022/01/28 12:20:37;;;;;;;6.57;4.57;;;;;;;12.99;30.82;99563.78;5029856;28;20719;-59
2022/01/28 12:23:20;;;;;;;9.07;4.90;;;;;;;12.99;31.15;99574.94;5029430;28;20285;-60
2022/01/28 12:25:49;;;;;;;6.60;4.10;;;;;;;13.10;30.81;99580.25;5027553;28;20596;-59
2022/01/28 12:28:18;;;;;;;7.63;3.30;;;;;;;13.11;31.10;99574.19;5029829;28;20280;-60
2022/01/28 12:30:48;;;;;;;6.60;4.93;;;;;;;13.22;30.89;99576.84;5029588;28;20196;-59